KMRF/MRF METAR and TAF weather

Enter ICAO airport designator
Station Type Date Time Source
KMRF METAR 2018/12/13 05:56 UTC NOAA

KMRF 130556Z AUTO 22007KT 10SM 06/03 A2994 RMK AO2 SLP120 T00560028 10128 20056 58003 TSNO $


Station Type Date Time Source
KMRF Decoded METAR 2018/12/13 05:56 UTC NOAA

Marfa, TX, United States (KMRF) 30-22N 104-01W 1481M
Dec 13, 2018 - 12:56 AM EST / 2018.12.13 0556 UTC
Wind: from the SW (220 degrees) at 8 MPH (7 KT):0
Visibility: 10 mile(s):0
Temperature: 42.1 F (5.6 C)
Dew Point: 37.0 F (2.8 C)
Relative Humidity: 82%
Pressure (altimeter): 29.94 in. Hg (1013 hPa)
Pressure tendency: 0.01 inches (0.3 hPa) lower than three hours ago
ob: KMRF 130556Z AUTO 22007KT 10SM 06/03 A2994 RMK AO2 SLP120 T00560028 10128 20056 58003 TSNO
cycle: 6

Station Type Date Time Source
KMRF TAF UTC NOAA

Error!


Example: see airport list